Grande San Paolo — IBNO — position and weather

sailwx.info

Track history (hours):
 
Tides and Currents Weather Stations Pressure Air Temp Water Temp Dewpoint Dewpoint Depression Visibility Wind Speed Wind Dir Waves Ship Positions

Grande San Paolo

Last reported at 2018-May-21 04:15 UTC. Time now 2018-May-22 02:20 UTC.
Position N 37°07' W 009°46'.

Length 214 m; draft 9.8 m.

Type: Cargo ship. MMSI: 247091500.

Date/timePositionNaut miles runAvg speedWind from/ knotsBaromVisibWave heightAir tempDewpointWater temp
2018-May-21 04:15N 37°07' W 009°46'716.5
2018-May-21 03:51N 37°13' W 009°46'616.7
2018-May-21 03:30N 37°19' W 009°46'816.6
2018-May-21 03:00N 37°28' W 009°45'816.3
2018-May-21 02:30N 37°36' W 009°44'816.3
2018-May-21 01:59N 37°44' W 009°41'1516.4
2018-May-21 01:06N 37°58' W 009°37'216.6
2018-May-21 01:00N 37°60' W 009°36'816.6
2018-May-21 00:30N 38°07' W 009°34'817.0
2018-May-21 00:01N 38°16' W 009°31'816.8
2018-May-20 23:30N 38°24' W 009°29'816.6
2018-May-20 23:00N 38°32' W 009°26'612.7
2018-May-20 22:30N 38°37' W 009°22'713.1
2018-May-20 21:57N 38°41' W 009°14'613.5
2018-May-20 21:30N 38°43' W 009°07'1 1.2
2018-May-20 20:59N 38°44' W 009°06'0 0.0
2018-May-20 20:29N 38°44' W 009°06'0 0.0
2018-May-20 19:59N 38°44' W 009°06'0 0.0
2018-May-20 19:29N 38°44' W 009°06'0 0.0
2018-May-20 18:59N 38°44' W 009°06'0 0.0
2018-May-20 18:29N 38°44' W 009°06'0 0.0
2018-May-20 17:59N 38°44' W 009°06'0 0.0
2018-May-20 17:29N 38°44' W 009°06'0 0.0
2018-May-20 16:59N 38°44' W 009°06'0 0.0
2018-May-20 16:29N 38°44' W 009°06'0 0.0
2018-May-20 15:59N 38°44' W 009°06'0 0.0
2018-May-20 15:29N 38°44' W 009°06'0 0.0
2018-May-20 14:59N 38°44' W 009°06'0 0.0
2018-May-20 14:29N 38°44' W 009°06'0 0.0
2018-May-20 13:59N 38°44' W 009°06'0 0.0
2018-May-20 13:29N 38°44' W 009°06'0 0.0
2018-May-20 12:59N 38°44' W 009°06'0 0.0
2018-May-20 12:29N 38°44' W 009°06'0 0.0
2018-May-20 11:59N 38°44' W 009°06'0 0.0
2018-May-20 11:29N 38°44' W 009°06'0 0.2
2018-May-20 11:00N 38°44' W 009°06'1 1.4
2018-May-20 10:31N 38°43' W 009°07'4 7.9
2018-May-20 09:59N 38°41' W 009°12'612.1
2018-May-20 09:31N 38°40' W 009°19'5 9.4
2018-May-20 09:00N 38°39' W 009°25'3 6.8
2018-May-20 08:30N 38°39' W 009°29'611.4
2018-May-20 08:00N 38°36' W 009°36'510.3
2018-May-20 07:30N 38°34' W 009°42'611.4
2018-May-20 07:00N 38°32' W 009°48'816.2
2018-May-20 06:30N 38°32' W 009°59'714.5
2018-May-20 06:00N 38°38' W 010°05'816.2
2018-May-20 05:30N 38°46' W 010°06'816.5
2018-May-20 05:00N 38°54' W 010°06'815.8
2018-May-20 04:30N 39°02' W 010°06'816.0
2018-May-20 04:00N 39°10' W 010°06'816.2
2018-May-20 03:30N 39°18' W 010°05'816.1
2018-May-20 03:00N 39°26' W 010°01'816.7
2018-May-20 02:30N 39°33' W 009°55'816.4
2018-May-20 02:00N 39°40' W 009°51'816.4
2018-May-20 01:30N 39°48' W 009°48'816.5
2018-May-20 01:00N 39°55' W 009°42'816.3
2018-May-20 00:30N 40°02' W 009°37'816.2
2018-May-20 00:00N 40°09' W 009°31'1916.3
2018-May-19 22:50N 40°25' W 009°18'516.1
2018-May-19 22:30N 40°30' W 009°15'816.2
2018-May-19 22:00N 40°37' W 009°09'1016.4
2018-May-19 21:23N 40°46' W 009°02'616.3
2018-May-19 21:00N 40°51' W 008°58'1416.3
2018-May-19 20:10N 41°03' W 008°48'2 9.8
2018-May-19 20:00N 41°04' W 008°47'611.7
2018-May-19 19:31N 41°08' W 008°43'3 5.0
2018-May-19 18:59N 41°11' W 008°42'0 0.0
2018-May-19 18:29N 41°11' W 008°42'0 0.0
2018-May-19 17:59N 41°11' W 008°42'0 0.0
2018-May-19 17:29N 41°11' W 008°42'0 0.0
2018-May-19 16:59N 41°11' W 008°42'0 0.0
2018-May-19 16:29N 41°11' W 008°42'0 0.0
2018-May-19 15:59N 41°11' W 008°42'0 0.0
2018-May-19 15:29N 41°11' W 008°42'0 0.0
2018-May-19 14:59N 41°11' W 008°42'0 0.0
2018-May-19 14:29N 41°11' W 008°42'0 0.0
2018-May-19 13:59N 41°11' W 008°42'0 0.0
2018-May-19 13:29N 41°11' W 008°42'0 0.0
2018-May-19 12:59N 41°11' W 008°42'0 0.0
2018-May-19 12:29N 41°11' W 008°42'0 0.0
2018-May-19 11:59N 41°11' W 008°42'0 0.0
2018-May-19 11:29N 41°11' W 008°42'0 0.0
2018-May-19 10:59N 41°11' W 008°42'0 0.0
2018-May-19 10:29N 41°11' W 008°42'0 0.0
2018-May-19 09:59N 41°11' W 008°42'0 0.0
2018-May-19 09:29N 41°11' W 008°42'0 0.0
2018-May-19 08:59N 41°11' W 008°42'0 0.0
2018-May-19 08:26N 41°11' W 008°42'0 0.0
2018-May-19 07:59N 41°11' W 008°42'0 0.0
2018-May-19 07:29N 41°11' W 008°42'0 0.0
2018-May-19 06:59N 41°11' W 008°42'0 0.0
2018-May-19 06:29N 41°11' W 008°42'0 0.0
2018-May-19 05:59N 41°11' W 008°42'0 0.4
2018-May-19 05:29N 41°11' W 008°42'2 4.8
2018-May-19 05:01N 41°09' W 008°44'3 5.2
2018-May-19 04:30N 41°10' W 008°47'0 0.1
2018-May-19 03:58N 41°10' W 008°47'0 0.0
2018-May-19 03:22N 41°10' W 008°47'0 0.0
2018-May-19 02:58N 41°10' W 008°47'0 0.0
2018-May-19 02:28N 41°10' W 008°47'0 0.1
2018-May-19 01:58N 41°10' W 008°47'0 0.1
2018-May-19 01:28N 41°10' W 008°47'0 0.0
2018-May-19 00:55N 41°10' W 008°47'0 0.1
2018-May-19 00:28N 41°10' W 008°47'0 0.1
2018-May-18 23:58N 41°10' W 008°47'0 0.0
2018-May-18 23:25N 41°10' W 008°47'0 0.0
2018-May-18 22:58N 41°10' W 008°47'0 0.0
2018-May-18 22:28N 41°10' W 008°47'0 0.0
2018-May-18 22:01N 41°10' W 008°47'0 0.0
2018-May-18 21:30N 41°10' W 008°47'0 0.0
2018-May-18 21:01N 41°10' W 008°47'0 0.0
2018-May-18 20:31N 41°10' W 008°47'0 0.0
2018-May-18 20:01N 41°10' W 008°47'0 0.0
2018-May-18 19:30N 41°10' W 008°47'0 0.0
2018-May-18 19:01N 41°10' W 008°47'0 0.0
2018-May-18 18:30N 41°10' W 008°47'0 0.0
2018-May-18 18:01N 41°10' W 008°47'0 0.0
2018-May-18 17:31N 41°10' W 008°47'0 0.0
2018-May-18 17:01N 41°10' W 008°47'0 0.0
2018-May-18 16:31N 41°10' W 008°47'0 0.1
2018-May-18 16:01N 41°10' W 008°47'0 0.0
2018-May-18 15:30N 41°10' W 008°47'0 0.0
2018-May-18 15:00N 41°10' W 008°47'0 0.0
2018-May-18 14:30N 41°10' W 008°47'0 0.0
2018-May-18 14:00N 41°10' W 008°47'0 0.0
2018-May-18 13:31N 41°10' W 008°47'0 0.0
2018-May-18 12:59N 41°10' W 008°47'0 0.0
2018-May-18 12:30N 41°10' W 008°47'0 0.1
2018-May-18 12:01N 41°10' W 008°47'0 0.0
2018-May-18 11:31N 41°10' W 008°47'0 0.0
2018-May-18 11:00N 41°10' W 008°47'0 0.0
2018-May-18 10:29N 41°10' W 008°47'0 0.1
2018-May-18 10:01N 41°10' W 008°47'0 0.0
2018-May-18 09:29N 41°10' W 008°47'0 0.0
2018-May-18 09:00N 41°10' W 008°47'0 0.0
2018-May-18 08:31N 41°10' W 008°47'0 0.0
2018-May-18 08:01N 41°10' W 008°47'0 0.0
2018-May-18 07:30N 41°10' W 008°47'0 0.2
2018-May-18 07:00N 41°10' W 008°47'3 5.7
2018-May-18 06:30N 41°11' W 008°51'47611.1
2018-May-16 11:33N 48°50' W 005°52'113.7
2018-May-16 11:27N 48°52' W 005°51'613.3
2018-May-16 11:00N 48°56' W 005°44'1313.9
2018-May-16 10:03N 49°02' W 005°26'113.9
2018-May-16 10:00N 49°02' W 005°25'714.2
2018-May-16 09:30N 49°06' W 005°16'916.2
2018-May-16 08:56N 49°10' W 005°03'1115.7
2018-May-16 08:16N 49°16' W 004°50'1514.7
2018-May-16 07:13N 49°23' W 004°29'2013.6
2018-May-16 05:44N 49°34' W 004°03'713.4
2018-May-16 05:11N 49°37' W 003°53'313.6
2018-May-16 05:00N 49°39' W 003°50'713.8
2018-May-16 04:30N 49°42' W 003°40'714.3
2018-May-16 04:00N 49°46' W 003°31'815.0
2018-May-16 03:30N 49°49' W 003°21'816.0
2018-May-16 03:00N 49°53' W 003°10'817.0
2018-May-16 02:30N 49°57' W 002°58'917.7
2018-May-16 02:00N 50°00' W 002°45'918.2
2018-May-16 01:30N 50°03' W 002°32'918.6
2018-May-16 01:01N 50°05' W 002°18'1118.4
2018-May-16 00:24N 50°08' W 002°01'717.6
2018-May-16 00:00N 50°09' W 001°50'815.8
2018-May-15 23:31N 50°08' W 001°38'714.7
2018-May-15 23:01N 50°04' W 001°28'713.9
2018-May-15 22:31N 50°01' W 001°19'713.3
2018-May-15 22:00N 49°57' W 001°11'612.5
2018-May-15 21:30N 49°53' W 001°03'612.2
2018-May-15 21:01N 49°50' W 000°55'612.3
2018-May-15 20:30N 49°47' W 000°47'612.5
2018-May-15 20:00N 49°43' W 000°39'612.4
2018-May-15 19:30N 49°40' W 000°31'612.6
2018-May-15 19:00N 49°36' W 000°22'713.2
2018-May-15 18:30N 49°33' W 000°13'713.9
2018-May-15 18:00N 49°31' W 000°03'713.6
2018-May-15 17:30N 49°29' E 000°07'2 4.9
2018-May-15 17:01N 49°29' E 000°10'0 0.0
2018-May-15 16:31N 49°29' E 000°10'0 0.8
2018-May-15 16:00N 49°29' E 000°11'0 0.0
2018-May-15 15:30N 49°29' E 000°11'0 0.0
2018-May-15 15:00N 49°29' E 000°11'0 0.0
2018-May-15 14:30N 49°29' E 000°11'0 0.0
2018-May-15 13:59N 49°29' E 000°11'0 0.0
2018-May-15 13:29N 49°29' E 000°11'0 0.0
2018-May-15 12:59N 49°29' E 000°11'0 0.0
2018-May-15 12:29N 49°29' E 000°11'0 0.0
2018-May-15 11:59N 49°29' E 000°11'0 0.0
2018-May-15 11:29N 49°29' E 000°11'0 0.0
2018-May-15 10:59N 49°29' E 000°11'0 0.0
2018-May-15 10:29N 49°29' E 000°11'0 0.0
2018-May-15 09:59N 49°29' E 000°11'0 0.0
2018-May-15 09:29N 49°29' E 000°11'0 0.0
2018-May-15 08:59N 49°29' E 000°11'0 0.0
2018-May-15 08:29N 49°29' E 000°11'0 0.0
2018-May-15 07:59N 49°29' E 000°11'0 0.0
2018-May-15 07:29N 49°29' E 000°11'0 0.0
2018-May-15 06:59N 49°29' E 000°11'0 0.0
2018-May-15 06:29N 49°29' E 000°11'0 0.0
2018-May-15 05:59N 49°29' E 000°11'0 0.0
2018-May-15 05:29N 49°29' E 000°11'0 0.0
2018-May-15 04:59N 49°29' E 000°11'0 0.0
2018-May-15 04:29N 49°29' E 000°11'0 0.0
2018-May-15 03:59N 49°29' E 000°11'0 0.0
2018-May-15 03:29N 49°29' E 000°11'0 0.0
2018-May-15 02:59N 49°29' E 000°11'0 0.0
2018-May-15 02:29N 49°29' E 000°11'0 0.0
2018-May-15 01:59N 49°29' E 000°11'0 0.0
2018-May-15 01:29N 49°29' E 000°11'0 0.0
2018-May-15 00:59N 49°29' E 000°11'0 0.0
2018-May-15 00:29N 49°29' E 000°11'0 0.0
2018-May-14 23:59N 49°29' E 000°11'0 0.0
2018-May-14 23:29N 49°29' E 000°11'0 0.0
2018-May-14 22:59N 49°29' E 000°11'0 0.0
2018-May-14 22:29N 49°29' E 000°11'0 0.8
2018-May-14 21:59N 49°29' E 000°10'0 0.2
2018-May-14 21:30N 49°29' E 000°10'3 6.7
2018-May-14 21:00N 49°29' E 000°05'713.3
2018-May-14 20:31N 49°31' W 000°04'3 5.4
2018-May-14 20:00N 49°33' W 000°08'0 0.5
2018-May-14 19:29N 49°34' W 000°08'0 0.2
2018-May-14 18:59N 49°33' W 000°08'0 0.1
2018-May-14 18:29N 49°33' W 000°08'0 0.1
2018-May-14 17:59N 49°33' W 000°08'0 0.1
2018-May-14 17:29N 49°33' W 000°08'0 0.0
2018-May-14 16:59N 49°33' W 000°08'0 0.0
2018-May-14 16:29N 49°33' W 000°08'0 0.0
2018-May-14 15:59N 49°33' W 000°08'0 0.0
2018-May-14 15:29N 49°33' W 000°08'0 0.0
2018-May-14 14:59N 49°33' W 000°08'0 0.1
2018-May-14 14:29N 49°33' W 000°08'0 0.1
2018-May-14 13:59N 49°33' W 000°08'0 0.1
2018-May-14 13:29N 49°33' W 000°08'0 0.1
2018-May-14 12:59N 49°33' W 000°08'0 0.0
2018-May-14 12:29N 49°33' W 000°08'0 0.0
2018-May-14 11:59N 49°33' W 000°08'0 0.1
2018-May-14 11:29N 49°33' W 000°08'0 0.0
2018-May-14 10:59N 49°33' W 000°08'0 0.1
2018-May-14 10:29N 49°33' W 000°08'0 0.1
2018-May-14 09:59N 49°33' W 000°08'0 0.1
2018-May-14 09:29N 49°33' W 000°08'0 0.2
2018-May-14 09:00N 49°33' W 000°08'1 2.6
2018-May-14 08:30N 49°35' W 000°07'612.4
2018-May-14 08:00N 49°41' W 000°08'815.7
2018-May-14 07:30N 49°49' W 000°09'815.9
2018-May-14 07:00N 49°57' W 000°09'815.7
2018-May-14 06:30N 50°05' W 000°08'816.0
2018-May-14 06:00N 50°12' W 000°06'816.2
2018-May-14 05:30N 50°20' W 000°04'816.3
2018-May-14 05:00N 50°28' W 000°02'816.3
2018-May-14 04:30N 50°31' E 000°10'816.9
2018-May-14 04:00N 50°34' E 000°23'817.2
2018-May-14 03:30N 50°36' E 000°36'917.5
2018-May-14 03:00N 50°41' E 000°47'917.7
2018-May-14 02:30N 50°46' E 000°58'917.6
2018-May-14 02:00N 50°53' E 001°07'917.0
2018-May-14 01:30N 50°59' E 001°16'816.0
2018-May-14 01:00N 51°04' E 001°27'815.2
2018-May-14 00:30N 51°09' E 001°36'714.9
2018-May-14 00:00N 51°14' E 001°45'815.3
2018-May-13 23:30N 51°20' E 001°51'714.6
2018-May-13 23:00N 51°25' E 001°60'816.7
2018-May-13 22:30N 51°22' E 002°12'815.2
2018-May-13 22:00N 51°22' E 002°24'816.3
2018-May-13 21:30N 51°23' E 002°37'713.6
2018-May-13 21:00N 51°25' E 002°48'816.9
2018-May-13 20:30N 51°25' E 003°01'916.3
2018-May-13 19:59N 51°25' E 003°15'816.4
2018-May-13 19:31N 51°25' E 003°27'511.0
2018-May-13 19:01N 51°26' E 003°36'5 9.8
2018-May-13 18:30N 51°24' E 003°43'713.6
2018-May-13 18:00N 51°21' E 003°53'713.8
2018-May-13 17:30N 51°26' E 004°01'612.1
2018-May-13 17:00N 51°22' E 004°09'5 9.4
2018-May-13 16:30N 51°21' E 004°16'5 9.3
2018-May-13 16:01N 51°17' E 004°19'2 3.9
2018-May-13 15:30N 51°16' E 004°17'0 0.0
2018-May-13 15:01N 51°16' E 004°17'1 2.6
2018-May-13 14:30N 51°16' E 004°15'1 2.1
2018-May-13 14:00N 51°17' E 004°13'0 0.0
2018-May-13 13:27N 51°17' E 004°13'0 0.0
2018-May-13 13:00N 51°17' E 004°13'0 0.0
2018-May-13 12:30N 51°17' E 004°13'0 0.0
2018-May-13 12:01N 51°17' E 004°13'0 0.0
2018-May-13 11:30N 51°17' E 004°13'0 0.0
2018-May-13 11:00N 51°17' E 004°13'0 0.0
2018-May-13 10:30N 51°17' E 004°13'0 0.0
2018-May-13 10:00N 51°17' E 004°13'0 0.0
2018-May-13 09:30N 51°17' E 004°13'0 0.0
2018-May-13 09:00N 51°17' E 004°13'0 0.0
2018-May-13 08:30N 51°17' E 004°13'0 0.0
2018-May-13 08:00N 51°17' E 004°13'0 0.0
2018-May-13 07:30N 51°17' E 004°13'0 0.0
2018-May-13 07:00N 51°17' E 004°13'0 0.0
2018-May-13 06:30N 51°17' E 004°13'0 0.0
2018-May-13 06:00N 51°17' E 004°13'0 0.0
2018-May-13 05:30N 51°17' E 004°13'0 0.0
2018-May-13 05:00N 51°17' E 004°13'0 0.0
2018-May-13 04:30N 51°17' E 004°13'0 0.0
2018-May-13 04:00N 51°17' E 004°13'0 0.0
2018-May-13 03:30N 51°17' E 004°13'0 0.0
2018-May-13 03:00N 51°17' E 004°13'0 0.0
2018-May-13 02:30N 51°17' E 004°13'0 0.0
2018-May-13 02:00N 51°17' E 004°13'0 0.0
2018-May-13 01:30N 51°17' E 004°13'0 0.0
2018-May-13 01:00N 51°17' E 004°13'0 0.0
2018-May-13 00:30N 51°17' E 004°13'0 0.0
2018-May-13 00:00N 51°17' E 004°13'0 0.0
2018-May-12 23:30N 51°17' E 004°13'0 0.0
2018-May-12 23:00N 51°17' E 004°13'0 0.0
2018-May-12 22:30N 51°17' E 004°13'0 0.0
2018-May-12 22:00N 51°17' E 004°13'0 0.0
2018-May-12 21:30N 51°17' E 004°13'0 0.0
2018-May-12 21:00N 51°17' E 004°13'0 0.0
2018-May-12 20:30N 51°17' E 004°13'0 0.0
2018-May-12 20:00N 51°17' E 004°13'0 0.0
2018-May-12 19:30N 51°17' E 004°13'0 0.0
2018-May-12 19:00N 51°17' E 004°13'0 0.0
2018-May-12 18:30N 51°17' E 004°13'0 0.0
2018-May-12 18:00N 51°17' E 004°13'0 0.0
2018-May-12 17:30N 51°17' E 004°13'0 0.0
2018-May-12 16:57N 51°17' E 004°13'0 0.0
2018-May-12 16:30N 51°17' E 004°13'0 0.0
2018-May-12 16:00N 51°17' E 004°13'0 0.0
2018-May-12 15:30N 51°17' E 004°13'0 0.0
2018-May-12 15:00N 51°17' E 004°13'0 0.0
2018-May-12 14:30N 51°17' E 004°13'0 0.0
2018-May-12 14:00N 51°17' E 004°13'0 0.0
2018-May-12 13:30N 51°17' E 004°13'0 0.0
2018-May-12 13:00N 51°17' E 004°13'0 0.0
2018-May-12 12:28N 51°17' E 004°13'0 0.0
2018-May-12 12:00N 51°17' E 004°13'0 0.0
2018-May-12 11:30N 51°17' E 004°13'0 0.0
2018-May-12 11:00N 51°17' E 004°13'0 0.0
2018-May-12 10:30N 51°17' E 004°13'0 0.0
2018-May-12 10:00N 51°17' E 004°13'0 0.0
2018-May-12 09:30N 51°17' E 004°13'0 0.0
2018-May-12 09:00N 51°17' E 004°13'0 0.0
2018-May-12 08:30N 51°17' E 004°13'0 0.0
2018-May-12 08:00N 51°17' E 004°13'0 0.0
2018-May-12 07:30N 51°17' E 004°13'0 0.0
2018-May-12 07:00N 51°17' E 004°13'0 0.0
2018-May-12 06:30N 51°17' E 004°13'0 0.0
2018-May-12 06:00N 51°17' E 004°13'0 0.0
2018-May-12 05:30N 51°17' E 004°13'0 0.0
2018-May-12 05:00N 51°17' E 004°13'0 0.0
2018-May-12 04:30N 51°17' E 004°13'0 0.0
2018-May-12 04:00N 51°17' E 004°13'0 0.0
2018-May-12 03:30N 51°17' E 004°13'0 0.0
2018-May-12 03:00N 51°17' E 004°13'0 0.0
2018-May-12 02:30N 51°17' E 004°13'0 0.0
2018-May-12 02:00N 51°17' E 004°13'0 0.0
2018-May-12 01:30N 51°17' E 004°13'0 0.0
2018-May-12 01:00N 51°17' E 004°13'0 0.0
2018-May-12 00:30N 51°17' E 004°13'0 0.0
2018-May-12 00:00N 51°17' E 004°13'0 0.0
2018-May-11 23:30N 51°17' E 004°13'0 0.0
2018-May-11 23:00N 51°17' E 004°13'0 0.0
2018-May-11 22:30N 51°17' E 004°13'0 0.0
2018-May-11 22:00N 51°17' E 004°13'0 0.0
2018-May-11 21:30N 51°17' E 004°13'0 0.0
2018-May-11 21:00N 51°17' E 004°13'0 0.0
2018-May-11 20:30N 51°17' E 004°13'0 0.1
2018-May-11 20:00N 51°17' E 004°13'0 0.1
2018-May-11 19:30N 51°17' E 004°13'0 0.0
2018-May-11 19:00N 51°17' E 004°13'0 0.0
2018-May-11 18:30N 51°17' E 004°13'0 0.0
2018-May-11 18:00N 51°17' E 004°13'0 0.0
2018-May-11 17:30N 51°17' E 004°13'0 0.0
2018-May-11 17:00N 51°17' E 004°13'0 0.0
2018-May-11 16:30N 51°17' E 004°13'0 0.0
2018-May-11 16:00N 51°17' E 004°13'0 0.0
2018-May-11 15:30N 51°17' E 004°13'0 0.0
2018-May-11 15:00N 51°17' E 004°13'0 0.0
2018-May-11 14:30N 51°17' E 004°13'0 0.0
2018-May-11 14:00N 51°17' E 004°13'0 0.0
2018-May-11 13:30N 51°17' E 004°13'0 0.0
2018-May-11 13:00N 51°17' E 004°13'0 0.0
2018-May-11 12:30N 51°17' E 004°13'0 0.0
2018-May-11 12:00N 51°17' E 004°13'0 0.0
2018-May-11 11:30N 51°17' E 004°13'0 0.0
2018-May-11 11:00N 51°17' E 004°13'0 0.0
2018-May-11 10:30N 51°17' E 004°13'0 0.0
2018-May-11 10:00N 51°17' E 004°13'0 0.0
2018-May-11 09:30N 51°17' E 004°13'0 0.0
2018-May-11 09:00N 51°17' E 004°13'0 0.0
2018-May-11 08:30N 51°17' E 004°13'0 0.0
2018-May-11 07:57N 51°17' E 004°13'0 0.0
2018-May-11 07:30N 51°17' E 004°13'0 0.0
2018-May-11 07:00N 51°17' E 004°13'0 0.0
2018-May-11 06:30N 51°17' E 004°13'0 0.0
2018-May-11 06:00N 51°17' E 004°13'0 0.0
2018-May-11 05:30N 51°17' E 004°13'0 0.0
2018-May-11 05:00N 51°17' E 004°13'0 0.0
2018-May-11 04:30N 51°17' E 004°13'  
Track history (hours):
 
Tides and Currents Weather Stations Pressure Air Temp Water Temp Dewpoint Dewpoint Depression Visibility Wind Speed Wind Dir Waves Ship Positions

Grande San Paolo

Last reported at 2018-May-21 04:15 UTC. Time now 2018-May-22 02:20 UTC.
Position N 37°07' W 009°46'.

Length 214 m; draft 9.8 m.

Type: Cargo ship. MMSI: 247091500.

Date/timePositionNaut miles runAvg speedWind from/ knotsBaromVisibWave heightAir tempDewpointWater temp
2018-May-21 04:15N 37°07' W 009°46'716.5
2018-May-21 03:51N 37°13' W 009°46'616.7
2018-May-21 03:30N 37°19' W 009°46'816.6
2018-May-21 03:00N 37°28' W 009°45'816.3
2018-May-21 02:30N 37°36' W 009°44'816.3
2018-May-21 01:59N 37°44' W 009°41'1516.4
2018-May-21 01:06N 37°58' W 009°37'216.6
2018-May-21 01:00N 37°60' W 009°36'816.6
2018-May-21 00:30N 38°07' W 009°34'817.0
2018-May-21 00:01N 38°16' W 009°31'816.8
2018-May-20 23:30N 38°24' W 009°29'816.6
2018-May-20 23:00N 38°32' W 009°26'612.7
2018-May-20 22:30N 38°37' W 009°22'713.1
2018-May-20 21:57N 38°41' W 009°14'613.5
2018-May-20 21:30N 38°43' W 009°07'1 1.2
2018-May-20 20:59N 38°44' W 009°06'0 0.0
2018-May-20 20:29N 38°44' W 009°06'0 0.0
2018-May-20 19:59N 38°44' W 009°06'0 0.0
2018-May-20 19:29N 38°44' W 009°06'0 0.0
2018-May-20 18:59N 38°44' W 009°06'0 0.0
2018-May-20 18:29N 38°44' W 009°06'0 0.0
2018-May-20 17:59N 38°44' W 009°06'0 0.0
2018-May-20 17:29N 38°44' W 009°06'0 0.0
2018-May-20 16:59N 38°44' W 009°06'0 0.0
2018-May-20 16:29N 38°44' W 009°06'0 0.0
2018-May-20 15:59N 38°44' W 009°06'0 0.0
2018-May-20 15:29N 38°44' W 009°06'0 0.0
2018-May-20 14:59N 38°44' W 009°06'0 0.0
2018-May-20 14:29N 38°44' W 009°06'0 0.0
2018-May-20 13:59N 38°44' W 009°06'0 0.0
2018-May-20 13:29N 38°44' W 009°06'0 0.0
2018-May-20 12:59N 38°44' W 009°06'0 0.0
2018-May-20 12:29N 38°44' W 009°06'0 0.0
2018-May-20 11:59N 38°44' W 009°06'0 0.0
2018-May-20 11:29N 38°44' W 009°06'0 0.2
2018-May-20 11:00N 38°44' W 009°06'1 1.4
2018-May-20 10:31N 38°43' W 009°07'4 7.9
2018-May-20 09:59N 38°41' W 009°12'612.1
2018-May-20 09:31N 38°40' W 009°19'5 9.4
2018-May-20 09:00N 38°39' W 009°25'3 6.8
2018-May-20 08:30N 38°39' W 009°29'611.4
2018-May-20 08:00N 38°36' W 009°36'510.3
2018-May-20 07:30N 38°34' W 009°42'611.4
2018-May-20 07:00N 38°32' W 009°48'816.2
2018-May-20 06:30N 38°32' W 009°59'714.5
2018-May-20 06:00N 38°38' W 010°05'816.2
2018-May-20 05:30N 38°46' W 010°06'816.5
2018-May-20 05:00N 38°54' W 010°06'815.8
2018-May-20 04:30N 39°02' W 010°06'816.0
2018-May-20 04:00N 39°10' W 010°06'816.2
2018-May-20 03:30N 39°18' W 010°05'816.1
2018-May-20 03:00N 39°26' W 010°01'816.7
2018-May-20 02:30N 39°33' W 009°55'816.4
2018-May-20 02:00N 39°40' W 009°51'816.4
2018-May-20 01:30N 39°48' W 009°48'816.5
2018-May-20 01:00N 39°55' W 009°42'816.3
2018-May-20 00:30N 40°02' W 009°37'816.2
2018-May-20 00:00N 40°09' W 009°31'1916.3
2018-May-19 22:50N 40°25' W 009°18'516.1
2018-May-19 22:30N 40°30' W 009°15'816.2
2018-May-19 22:00N 40°37' W 009°09'1016.4
2018-May-19 21:23N 40°46' W 009°02'616.3
2018-May-19 21:00N 40°51' W 008°58'1416.3
2018-May-19 20:10N 41°03' W 008°48'2 9.8
2018-May-19 20:00N 41°04' W 008°47'611.7
2018-May-19 19:31N 41°08' W 008°43'3 5.0
2018-May-19 18:59N 41°11' W 008°42'0 0.0
2018-May-19 18:29N 41°11' W 008°42'0 0.0
2018-May-19 17:59N 41°11' W 008°42'0 0.0
2018-May-19 17:29N 41°11' W 008°42'0 0.0
2018-May-19 16:59N 41°11' W 008°42'0 0.0
2018-May-19 16:29N 41°11' W 008°42'0 0.0
2018-May-19 15:59N 41°11' W 008°42'0 0.0
2018-May-19 15:29N 41°11' W 008°42'0 0.0
2018-May-19 14:59N 41°11' W 008°42'0 0.0
2018-May-19 14:29N 41°11' W 008°42'0 0.0
2018-May-19 13:59N 41°11' W 008°42'0 0.0
2018-May-19 13:29N 41°11' W 008°42'0 0.0
2018-May-19 12:59N 41°11' W 008°42'0 0.0
2018-May-19 12:29N 41°11' W 008°42'0 0.0
2018-May-19 11:59N 41°11' W 008°42'0 0.0
2018-May-19 11:29N 41°11' W 008°42'0 0.0
2018-May-19 10:59N 41°11' W 008°42'0 0.0
2018-May-19 10:29N 41°11' W 008°42'0 0.0
2018-May-19 09:59N 41°11' W 008°42'0 0.0
2018-May-19 09:29N 41°11' W 008°42'0 0.0
2018-May-19 08:59N 41°11' W 008°42'0 0.0
2018-May-19 08:26N 41°11' W 008°42'0 0.0
2018-May-19 07:59N 41°11' W 008°42'0 0.0
2018-May-19 07:29N 41°11' W 008°42'0 0.0
2018-May-19 06:59N 41°11' W 008°42'0 0.0
2018-May-19 06:29N 41°11' W 008°42'0 0.0
2018-May-19 05:59N 41°11' W 008°42'0 0.4
2018-May-19 05:29N 41°11' W 008°42'2 4.8
2018-May-19 05:01N 41°09' W 008°44'3 5.2
2018-May-19 04:30N 41°10' W 008°47'0 0.1
2018-May-19 03:58N 41°10' W 008°47'0 0.0
2018-May-19 03:22N 41°10' W 008°47'0 0.0
2018-May-19 02:58N 41°10' W 008°47'0 0.0
2018-May-19 02:28N 41°10' W 008°47'0 0.1
2018-May-19 01:58N 41°10' W 008°47'0 0.1
2018-May-19 01:28N 41°10' W 008°47'0 0.0
2018-May-19 00:55N 41°10' W 008°47'0 0.1
2018-May-19 00:28N 41°10' W 008°47'0 0.1
2018-May-18 23:58N 41°10' W 008°47'0 0.0
2018-May-18 23:25N 41°10' W 008°47'0 0.0
2018-May-18 22:58N 41°10' W 008°47'0 0.0
2018-May-18 22:28N 41°10' W 008°47'0 0.0
2018-May-18 22:01N 41°10' W 008°47'0 0.0
2018-May-18 21:30N 41°10' W 008°47'0 0.0
2018-May-18 21:01N 41°10' W 008°47'0 0.0
2018-May-18 20:31N 41°10' W 008°47'0 0.0
2018-May-18 20:01N 41°10' W 008°47'0 0.0
2018-May-18 19:30N 41°10' W 008°47'0 0.0
2018-May-18 19:01N 41°10' W 008°47'0 0.0
2018-May-18 18:30N 41°10' W 008°47'0 0.0
2018-May-18 18:01N 41°10' W 008°47'0 0.0
2018-May-18 17:31N 41°10' W 008°47'0 0.0
2018-May-18 17:01N 41°10' W 008°47'0 0.0
2018-May-18 16:31N 41°10' W 008°47'0 0.1
2018-May-18 16:01N 41°10' W 008°47'0 0.0
2018-May-18 15:30N 41°10' W 008°47'0 0.0
2018-May-18 15:00N 41°10' W 008°47'0 0.0
2018-May-18 14:30N 41°10' W 008°47'0 0.0
2018-May-18 14:00N 41°10' W 008°47'0 0.0
2018-May-18 13:31N 41°10' W 008°47'0 0.0
2018-May-18 12:59N 41°10' W 008°47'0 0.0
2018-May-18 12:30N 41°10' W 008°47'0 0.1
2018-May-18 12:01N 41°10' W 008°47'0 0.0
2018-May-18 11:31N 41°10' W 008°47'0 0.0
2018-May-18 11:00N 41°10' W 008°47'0 0.0
2018-May-18 10:29N 41°10' W 008°47'0 0.1
2018-May-18 10:01N 41°10' W 008°47'0 0.0
2018-May-18 09:29N 41°10' W 008°47'0 0.0
2018-May-18 09:00N 41°10' W 008°47'0 0.0
2018-May-18 08:31N 41°10' W 008°47'0 0.0
2018-May-18 08:01N 41°10' W 008°47'0 0.0
2018-May-18 07:30N 41°10' W 008°47'0 0.2
2018-May-18 07:00N 41°10' W 008°47'3 5.7
2018-May-18 06:30N 41°11' W 008°51'47611.1
2018-May-16 11:33N 48°50' W 005°52'113.7
2018-May-16 11:27N 48°52' W 005°51'613.3
2018-May-16 11:00N 48°56' W 005°44'1313.9
2018-May-16 10:03N 49°02' W 005°26'113.9
2018-May-16 10:00N 49°02' W 005°25'714.2
2018-May-16 09:30N 49°06' W 005°16'916.2
2018-May-16 08:56N 49°10' W 005°03'1115.7
2018-May-16 08:16N 49°16' W 004°50'1514.7
2018-May-16 07:13N 49°23' W 004°29'2013.6
2018-May-16 05:44N 49°34' W 004°03'713.4
2018-May-16 05:11N 49°37' W 003°53'313.6
2018-May-16 05:00N 49°39' W 003°50'713.8
2018-May-16 04:30N 49°42' W 003°40'714.3
2018-May-16 04:00N 49°46' W 003°31'815.0
2018-May-16 03:30N 49°49' W 003°21'816.0
2018-May-16 03:00N 49°53' W 003°10'817.0
2018-May-16 02:30N 49°57' W 002°58'917.7
2018-May-16 02:00N 50°00' W 002°45'918.2
2018-May-16 01:30N 50°03' W 002°32'918.6
2018-May-16 01:01N 50°05' W 002°18'1118.4
2018-May-16 00:24N 50°08' W 002°01'717.6
2018-May-16 00:00N 50°09' W 001°50'815.8
2018-May-15 23:31N 50°08' W 001°38'714.7
2018-May-15 23:01N 50°04' W 001°28'713.9
2018-May-15 22:31N 50°01' W 001°19'713.3
2018-May-15 22:00N 49°57' W 001°11'612.5
2018-May-15 21:30N 49°53' W 001°03'612.2
2018-May-15 21:01N 49°50' W 000°55'612.3
2018-May-15 20:30N 49°47' W 000°47'612.5
2018-May-15 20:00N 49°43' W 000°39'612.4
2018-May-15 19:30N 49°40' W 000°31'612.6
2018-May-15 19:00N 49°36' W 000°22'713.2
2018-May-15 18:30N 49°33' W 000°13'713.9
2018-May-15 18:00N 49°31' W 000°03'713.6
2018-May-15 17:30N 49°29' E 000°07'2 4.9
2018-May-15 17:01N 49°29' E 000°10'0 0.0
2018-May-15 16:31N 49°29' E 000°10'0 0.8
2018-May-15 16:00N 49°29' E 000°11'0 0.0
2018-May-15 15:30N 49°29' E 000°11'0 0.0
2018-May-15 15:00N 49°29' E 000°11'0 0.0
2018-May-15 14:30N 49°29' E 000°11'0 0.0
2018-May-15 13:59N 49°29' E 000°11'0 0.0
2018-May-15 13:29N 49°29' E 000°11'0 0.0
2018-May-15 12:59N 49°29' E 000°11'0 0.0
2018-May-15 12:29N 49°29' E 000°11'0 0.0
2018-May-15 11:59N 49°29' E 000°11'0 0.0
2018-May-15 11:29N 49°29' E 000°11'0 0.0
2018-May-15 10:59N 49°29' E 000°11'0 0.0
2018-May-15 10:29N 49°29' E 000°11'0 0.0
2018-May-15 09:59N 49°29' E 000°11'0 0.0
2018-May-15 09:29N 49°29' E 000°11'0 0.0
2018-May-15 08:59N 49°29' E 000°11'0 0.0
2018-May-15 08:29N 49°29' E 000°11'0 0.0
2018-May-15 07:59N 49°29' E 000°11'0 0.0
2018-May-15 07:29N 49°29' E 000°11'0 0.0
2018-May-15 06:59N 49°29' E 000°11'0 0.0
2018-May-15 06:29N 49°29' E 000°11'0 0.0
2018-May-15 05:59N 49°29' E 000°11'0 0.0
2018-May-15 05:29N 49°29' E 000°11'0 0.0
2018-May-15 04:59N 49°29' E 000°11'0 0.0
2018-May-15 04:29N 49°29' E 000°11'0 0.0
2018-May-15 03:59N 49°29' E 000°11'0 0.0
2018-May-15 03:29N 49°29' E 000°11'0 0.0
2018-May-15 02:59N 49°29' E 000°11'0 0.0
2018-May-15 02:29N 49°29' E 000°11'0 0.0
2018-May-15 01:59N 49°29' E 000°11'0 0.0
2018-May-15 01:29N 49°29' E 000°11'0 0.0
2018-May-15 00:59N 49°29' E 000°11'0 0.0
2018-May-15 00:29N 49°29' E 000°11'0 0.0
2018-May-14 23:59N 49°29' E 000°11'0 0.0
2018-May-14 23:29N 49°29' E 000°11'0 0.0
2018-May-14 22:59N 49°29' E 000°11'0 0.0
2018-May-14 22:29N 49°29' E 000°11'0 0.8
2018-May-14 21:59N 49°29' E 000°10'0 0.2
2018-May-14 21:30N 49°29' E 000°10'3 6.7
2018-May-14 21:00N 49°29' E 000°05'713.3
2018-May-14 20:31N 49°31' W 000°04'3 5.4
2018-May-14 20:00N 49°33' W 000°08'0 0.5
2018-May-14 19:29N 49°34' W 000°08'0 0.2
2018-May-14 18:59N 49°33' W 000°08'0 0.1
2018-May-14 18:29N 49°33' W 000°08'0 0.1
2018-May-14 17:59N 49°33' W 000°08'0 0.1
2018-May-14 17:29N 49°33' W 000°08'0 0.0
2018-May-14 16:59N 49°33' W 000°08'0 0.0
2018-May-14 16:29N 49°33' W 000°08'0 0.0
2018-May-14 15:59N 49°33' W 000°08'0 0.0
2018-May-14 15:29N 49°33' W 000°08'0 0.0
2018-May-14 14:59N 49°33' W 000°08'0 0.1
2018-May-14 14:29N 49°33' W 000°08'0 0.1
2018-May-14 13:59N 49°33' W 000°08'0 0.1
2018-May-14 13:29N 49°33' W 000°08'0 0.1
2018-May-14 12:59N 49°33' W 000°08'0 0.0
2018-May-14 12:29N 49°33' W 000°08'0 0.0
2018-May-14 11:59N 49°33' W 000°08'0 0.1
2018-May-14 11:29N 49°33' W 000°08'0 0.0
2018-May-14 10:59N 49°33' W 000°08'0 0.1
2018-May-14 10:29N 49°33' W 000°08'0 0.1
2018-May-14 09:59N 49°33' W 000°08'0 0.1
2018-May-14 09:29N 49°33' W 000°08'0 0.2
2018-May-14 09:00N 49°33' W 000°08'1 2.6
2018-May-14 08:30N 49°35' W 000°07'612.4
2018-May-14 08:00N 49°41' W 000°08'815.7
2018-May-14 07:30N 49°49' W 000°09'815.9
2018-May-14 07:00N 49°57' W 000°09'815.7
2018-May-14 06:30N 50°05' W 000°08'816.0
2018-May-14 06:00N 50°12' W 000°06'816.2
2018-May-14 05:30N 50°20' W 000°04'816.3
2018-May-14 05:00N 50°28' W 000°02'816.3
2018-May-14 04:30N 50°31' E 000°10'816.9
2018-May-14 04:00N 50°34' E 000°23'817.2
2018-May-14 03:30N 50°36' E 000°36'917.5
2018-May-14 03:00N 50°41' E 000°47'917.7
2018-May-14 02:30N 50°46' E 000°58'917.6
2018-May-14 02:00N 50°53' E 001°07'917.0
2018-May-14 01:30N 50°59' E 001°16'816.0
2018-May-14 01:00N 51°04' E 001°27'815.2
2018-May-14 00:30N 51°09' E 001°36'714.9
2018-May-14 00:00N 51°14' E 001°45'815.3
2018-May-13 23:30N 51°20' E 001°51'714.6
2018-May-13 23:00N 51°25' E 001°60'816.7
2018-May-13 22:30N 51°22' E 002°12'815.2
2018-May-13 22:00N 51°22' E 002°24'816.3
2018-May-13 21:30N 51°23' E 002°37'713.6
2018-May-13 21:00N 51°25' E 002°48'816.9
2018-May-13 20:30N 51°25' E 003°01'916.3
2018-May-13 19:59N 51°25' E 003°15'816.4
2018-May-13 19:31N 51°25' E 003°27'511.0
2018-May-13 19:01N 51°26' E 003°36'5 9.8
2018-May-13 18:30N 51°24' E 003°43'713.6
2018-May-13 18:00N 51°21' E 003°53'713.8
2018-May-13 17:30N 51°26' E 004°01'612.1
2018-May-13 17:00N 51°22' E 004°09'5 9.4
2018-May-13 16:30N 51°21' E 004°16'5 9.3
2018-May-13 16:01N 51°17' E 004°19'2 3.9
2018-May-13 15:30N 51°16' E 004°17'0 0.0
2018-May-13 15:01N 51°16' E 004°17'1 2.6
2018-May-13 14:30N 51°16' E 004°15'1 2.1
2018-May-13 14:00N 51°17' E 004°13'0 0.0
2018-May-13 13:27N 51°17' E 004°13'0 0.0
2018-May-13 13:00N 51°17' E 004°13'0 0.0
2018-May-13 12:30N 51°17' E 004°13'0 0.0
2018-May-13 12:01N 51°17' E 004°13'0 0.0
2018-May-13 11:30N 51°17' E 004°13'0 0.0
2018-May-13 11:00N 51°17' E 004°13'0 0.0
2018-May-13 10:30N 51°17' E 004°13'0 0.0
2018-May-13 10:00N 51°17' E 004°13'0 0.0
2018-May-13 09:30N 51°17' E 004°13'0 0.0
2018-May-13 09:00N 51°17' E 004°13'0 0.0
2018-May-13 08:30N 51°17' E 004°13'0 0.0
2018-May-13 08:00N 51°17' E 004°13'0 0.0
2018-May-13 07:30N 51°17' E 004°13'0 0.0
2018-May-13 07:00N 51°17' E 004°13'0 0.0
2018-May-13 06:30N 51°17' E 004°13'0 0.0
2018-May-13 06:00N 51°17' E 004°13'0 0.0
2018-May-13 05:30N 51°17' E 004°13'0 0.0
2018-May-13 05:00N 51°17' E 004°13'0 0.0
2018-May-13 04:30N 51°17' E 004°13'0 0.0
2018-May-13 04:00N 51°17' E 004°13'0 0.0
2018-May-13 03:30N 51°17' E 004°13'0 0.0
2018-May-13 03:00N 51°17' E 004°13'0 0.0
2018-May-13 02:30N 51°17' E 004°13'0 0.0
2018-May-13 02:00N 51°17' E 004°13'0 0.0
2018-May-13 01:30N 51°17' E 004°13'0 0.0
2018-May-13 01:00N 51°17' E 004°13'0 0.0
2018-May-13 00:30N 51°17' E 004°13'0 0.0
2018-May-13 00:00N 51°17' E 004°13'0 0.0
2018-May-12 23:30N 51°17' E 004°13'0 0.0
2018-May-12 23:00N 51°17' E 004°13'0 0.0
2018-May-12 22:30N 51°17' E 004°13'0 0.0
2018-May-12 22:00N 51°17' E 004°13'0 0.0
2018-May-12 21:30N 51°17' E 004°13'0 0.0
2018-May-12 21:00N 51°17' E 004°13'0 0.0
2018-May-12 20:30N 51°17' E 004°13'0 0.0
2018-May-12 20:00N 51°17' E 004°13'0 0.0
2018-May-12 19:30N 51°17' E 004°13'0 0.0
2018-May-12 19:00N 51°17' E 004°13'0 0.0
2018-May-12 18:30N 51°17' E 004°13'0 0.0
2018-May-12 18:00N 51°17' E 004°13'0 0.0
2018-May-12 17:30N 51°17' E 004°13'0 0.0
2018-May-12 16:57N 51°17' E 004°13'0 0.0
2018-May-12 16:30N 51°17' E 004°13'0 0.0
2018-May-12 16:00N 51°17' E 004°13'0 0.0
2018-May-12 15:30N 51°17' E 004°13'0 0.0
2018-May-12 15:00N 51°17' E 004°13'0 0.0
2018-May-12 14:30N 51°17' E 004°13'0 0.0
2018-May-12 14:00N 51°17' E 004°13'0 0.0
2018-May-12 13:30N 51°17' E 004°13'0 0.0
2018-May-12 13:00N 51°17' E 004°13'0 0.0
2018-May-12 12:28N 51°17' E 004°13'0 0.0
2018-May-12 12:00N 51°17' E 004°13'0 0.0
2018-May-12 11:30N 51°17' E 004°13'0 0.0
2018-May-12 11:00N 51°17' E 004°13'0 0.0
2018-May-12 10:30N 51°17' E 004°13'0 0.0
2018-May-12 10:00N 51°17' E 004°13'0 0.0
2018-May-12 09:30N 51°17' E 004°13'0 0.0
2018-May-12 09:00N 51°17' E 004°13'0 0.0
2018-May-12 08:30N 51°17' E 004°13'0 0.0
2018-May-12 08:00N 51°17' E 004°13'0 0.0
2018-May-12 07:30N 51°17' E 004°13'0 0.0
2018-May-12 07:00N 51°17' E 004°13'0 0.0
2018-May-12 06:30N 51°17' E 004°13'0 0.0
2018-May-12 06:00N 51°17' E 004°13'0 0.0
2018-May-12 05:30N 51°17' E 004°13'0 0.0
2018-May-12 05:00N 51°17' E 004°13'0 0.0
2018-May-12 04:30N 51°17' E 004°13'0 0.0
2018-May-12 04:00N 51°17' E 004°13'0 0.0
2018-May-12 03:30N 51°17' E 004°13'0 0.0
2018-May-12 03:00N 51°17' E 004°13'0 0.0
2018-May-12 02:30N 51°17' E 004°13'0 0.0
2018-May-12 02:00N 51°17' E 004°13'0 0.0
2018-May-12 01:30N 51°17' E 004°13'0 0.0
2018-May-12 01:00N 51°17' E 004°13'0 0.0
2018-May-12 00:30N 51°17' E 004°13'0 0.0
2018-May-12 00:00N 51°17' E 004°13'0 0.0
2018-May-11 23:30N 51°17' E 004°13'0 0.0
2018-May-11 23:00N 51°17' E 004°13'0 0.0
2018-May-11 22:30N 51°17' E 004°13'0 0.0
2018-May-11 22:00N 51°17' E 004°13'0 0.0
2018-May-11 21:30N 51°17' E 004°13'0 0.0
2018-May-11 21:00N 51°17' E 004°13'0 0.0
2018-May-11 20:30N 51°17' E 004°13'0 0.1
2018-May-11 20:00N 51°17' E 004°13'0 0.1
2018-May-11 19:30N 51°17' E 004°13'0 0.0
2018-May-11 19:00N 51°17' E 004°13'0 0.0
2018-May-11 18:30N 51°17' E 004°13'0 0.0
2018-May-11 18:00N 51°17' E 004°13'0 0.0
2018-May-11 17:30N 51°17' E 004°13'0 0.0
2018-May-11 17:00N 51°17' E 004°13'0 0.0
2018-May-11 16:30N 51°17' E 004°13'0 0.0
2018-May-11 16:00N 51°17' E 004°13'0 0.0
2018-May-11 15:30N 51°17' E 004°13'0 0.0
2018-May-11 15:00N 51°17' E 004°13'0 0.0
2018-May-11 14:30N 51°17' E 004°13'0 0.0
2018-May-11 14:00N 51°17' E 004°13'0 0.0
2018-May-11 13:30N 51°17' E 004°13'0 0.0
2018-May-11 13:00N 51°17' E 004°13'0 0.0
2018-May-11 12:30N 51°17' E 004°13'0 0.0
2018-May-11 12:00N 51°17' E 004°13'0 0.0
2018-May-11 11:30N 51°17' E 004°13'0 0.0
2018-May-11 11:00N 51°17' E 004°13'0 0.0
2018-May-11 10:30N 51°17' E 004°13'0 0.0
2018-May-11 10:00N 51°17' E 004°13'0 0.0
2018-May-11 09:30N 51°17' E 004°13'0 0.0
2018-May-11 09:00N 51°17' E 004°13'0 0.0
2018-May-11 08:30N 51°17' E 004°13'0 0.0
2018-May-11 07:57N 51°17' E 004°13'0 0.0
2018-May-11 07:30N 51°17' E 004°13'0 0.0
2018-May-11 07:00N 51°17' E 004°13'0 0.0
2018-May-11 06:30N 51°17' E 004°13'0 0.0
2018-May-11 06:00N 51°17' E 004°13'0 0.0
2018-May-11 05:30N 51°17' E 004°13'0 0.0
2018-May-11 05:00N 51°17' E 004°13'0 0.0
2018-May-11 04:30N 51°17' E 004°13'  

Dump ship's entire track history